Terminal Aerodrome Forecast
Issued by NWS

Home | Current Version | Previous Version | Text Only | Print | Product List | Glossary On
Versions: 1 2 3 4 5 6 7 8 9 10 11 12 13 14
000
FTUS45 KMSO 270520
TAFSMN
TAF
KSMN 270520Z 2706/2806 VRB15G25KT P6SM VCTS BKN120CB
     FM270900 22006KT P6SM VCSH BKN080
     FM272000 29015G25KT 5SM -TSRA BKN050CB BKN080
     FM280300 31010G20KT P6SM VCSH BKN080
      AMD LTD TO CLD VIS AND WIND=

USA.gov is the U.S. government's official web portal to all federal, state and local government web resources and services.